Time;durP1;ratioP1;P1;durP2;ratioP2;P2;SDS_P1;SDS_P2;PMS_P1;PMS_P2;Temp;Humidity;BMP_temperature;BMP_pressure;BME280_temperature;BME280_humidity;BME280_pressure;Samples;Min_cycle;Max_cycle;Signal;HPM_P1;HPM_P2
2023/08/08 00:01:42;;;;;;;0.50;0.40;;;;;;;17.05;100.00;99207.35;104392;1255;59766;-49
2023/08/08 00:04:10;;;;;;;0.40;0.40;;;;;;;17.03;100.00;99205.46;104669;1258;59546;-50
2023/08/08 00:06:37;;;;;;;0.80;0.60;;;;;;;16.99;100.00;99207.98;104620;1255;73130;-51
2023/08/08 00:09:05;;;;;;;1.30;0.50;;;;;;;16.94;100.00;99206.60;104843;1256;67684;-47
2023/08/08 00:11:32;;;;;;;3.90;0.40;;;;;;;16.89;100.00;99209.55;105031;1254;71235;-47
2023/08/08 00:13:59;;;;;;;0.50;0.40;;;;;;;16.84;100.00;99211.99;104438;1258;60461;-49
2023/08/08 00:16:26;;;;;;;1.90;0.40;;;;;;;16.78;100.00;99218.23;104539;1256;60423;-51
2023/08/08 00:18:54;;;;;;;0.40;0.40;;;;;;;16.74;100.00;99219.52;104494;1254;73035;-50
2023/08/08 00:21:21;;;;;;;0.40;0.40;;;;;;;16.70;100.00;99222.36;104554;1258;66741;-51
2023/08/08 00:23:48;;;;;;;2.30;0.40;;;;;;;16.67;100.00;99223.71;104562;1255;71392;-51
2023/08/08 00:26:16;;;;;;;0.40;0.40;;;;;;;16.63;100.00;99222.36;104507;1257;61099;-49
2023/08/08 00:28:43;;;;;;;0.50;0.30;;;;;;;16.60;100.00;99222.91;104500;1256;60484;-51
2023/08/08 00:31:10;;;;;;;1.30;0.30;;;;;;;16.59;100.00;99221.19;104505;1256;71198;-50
2023/08/08 00:33:38;;;;;;;0.70;0.40;;;;;;;16.57;100.00;99223.91;108171;1253;70127;-49
2023/08/08 00:36:05;;;;;;;1.10;0.50;;;;;;;16.57;100.00;99221.98;104475;1256;72896;-49
2023/08/08 00:38:33;;;;;;;1.30;0.40;;;;;;;16.56;100.00;99222.01;104640;1254;60580;-49
2023/08/08 00:41:00;;;;;;;3.90;0.80;;;;;;;16.56;100.00;99220.40;104564;1253;60199;-48
2023/08/08 00:43:28;;;;;;;1.10;0.50;;;;;;;16.56;100.00;99221.63;104744;1256;73630;-48
2023/08/08 00:45:55;;;;;;;1.30;0.40;;;;;;;16.57;100.00;99219.23;104895;1255;66295;-48
2023/08/08 00:48:23;;;;;;;1.50;0.40;;;;;;;16.57;100.00;99220.67;105095;1256;71323;-48
2023/08/08 00:50:50;;;;;;;0.90;0.40;;;;;;;16.56;100.00;99221.27;109017;1253;58782;-48
2023/08/08 00:53:19;;;;;;;1.30;0.50;;;;;;;16.56;100.00;99221.48;108993;1253;59126;-48
2023/08/08 00:55:46;;;;;;;5.90;0.70;;;;;;;16.55;100.00;99229.90;109002;1253;71776;-52
2023/08/08 00:58:14;;;;;;;2.00;0.60;;;;;;;16.54;100.00;99227.82;109141;1253;66172;-49
2023/08/08 01:00:41;;;;;;;1.60;0.40;;;;;;;16.52;100.00;99224.29;108900;1253;72890;-48
2023/08/08 01:03:09;;;;;;;2.50;0.60;;;;;;;16.52;100.00;99224.31;109099;1256;60359;-49
2023/08/08 01:05:47;;;;;;;2.10;0.40;;;;;;;16.52;100.00;99224.36;108954;1254;60005;-52
2023/08/08 01:08:16;;;;;;;0.90;0.30;;;;;;;16.51;100.00;99223.34;109087;1253;72843;-48
2023/08/08 01:10:43;;;;;;;4.30;0.40;;;;;;;16.50;100.00;99223.77;105337;1255;66044;-47
2023/08/08 01:13:13;;;;;;;0.80;0.30;;;;;;;16.49;100.00;99228.41;104876;1257;75672;-49
2023/08/08 01:15:41;;;;;;;2.40;0.30;;;;;;;16.48;100.00;99225.73;107044;1256;60590;-48
2023/08/08 01:18:09;;;;;;;0.40;0.30;;;;;;;16.48;100.00;99230.30;104890;1253;60009;-47
2023/08/08 01:20:37;;;;;;;1.20;0.40;;;;;;;16.48;100.00;99230.50;105492;1257;72979;-47
2023/08/08 01:23:14;;;;;;;0.70;0.50;;;;;;;16.47;100.00;99234.70;105202;1253;65806;-47
2023/08/08 01:25:42;;;;;;;4.00;0.50;;;;;;;16.47;100.00;99235.46;104387;1260;72783;-49
2023/08/08 01:28:09;;;;;;;0.80;0.50;;;;;;;16.44;100.00;99233.14;104553;1253;60568;-49
2023/08/08 01:30:37;;;;;;;0.50;0.50;;;;;;;16.42;100.00;99231.67;104374;1253;60535;-49
2023/08/08 01:33:04;;;;;;;0.80;0.40;;;;;;;16.40;100.00;99230.09;107703;1256;72926;-49
2023/08/08 01:35:36;;;;;;;0.60;0.50;;;;;;;16.38;100.00;99232.56;104526;1253;68389;-45
2023/08/08 01:38:08;;;;;;;0.40;0.40;;;;;;;16.37;100.00;99237.02;104344;1253;74743;-50
2023/08/08 01:40:36;;;;;;;1.40;0.50;;;;;;;16.36;100.00;99237.23;104551;1253;60508;-47
2023/08/08 01:43:04;;;;;;;3.00;0.40;;;;;;;16.35;100.00;99236.76;104423;1256;60544;-50
2023/08/08 01:45:31;;;;;;;0.50;0.40;;;;;;;16.35;100.00;99238.40;104492;1259;73017;-48
2023/08/08 01:47:58;;;;;;;0.40;0.40;;;;;;;16.34;100.00;99241.77;104497;1258;67547;-49
2023/08/08 01:50:26;;;;;;;0.90;0.40;;;;;;;16.33;100.00;99244.17;105829;1257;73551;-47
2023/08/08 01:52:53;;;;;;;2.90;0.40;;;;;;;16.33;100.00;99244.21;104465;1253;63258;-49
2023/08/08 01:55:21;;;;;;;1.20;0.40;;;;;;;16.33;100.00;99250.16;104502;1254;62142;-52
2023/08/08 01:57:48;;;;;;;0.50;0.40;;;;;;;16.33;100.00;99252.55;104573;1256;71794;-50
2023/08/08 02:00:15;;;;;;;0.90;0.50;;;;;;;16.32;100.00;99255.13;104623;1253;66284;-52
2023/08/08 02:02:43;;;;;;;0.40;0.40;;;;;;;16.32;100.00;99258.06;104437;1259;72706;-50
2023/08/08 02:05:11;;;;;;;1.80;0.50;;;;;;;16.30;100.00;99263.06;104389;1253;60466;-50
2023/08/08 02:07:38;;;;;;;2.30;0.40;;;;;;;16.27;100.00;99261.50;104467;1253;60526;-52
2023/08/08 02:10:06;;;;;;;0.40;0.40;;;;;;;16.23;100.00;99259.23;104786;1255;73779;-50
2023/08/08 02:12:33;;;;;;;0.40;0.40;;;;;;;16.21;100.00;99260.55;104855;1254;67165;-52
2023/08/08 02:15:00;;;;;;;2.10;0.40;;;;;;;16.17;100.00;99262.62;105013;1259;72976;-52
2023/08/08 02:17:28;;;;;;;0.40;0.30;;;;;;;16.14;100.00;99270.34;105039;1256;61709;-51
2023/08/08 02:19:56;;;;;;;0.40;0.30;;;;;;;16.11;100.00;99268.58;105105;1253;60474;-51
2023/08/08 02:22:25;;;;;;;1.80;0.40;;;;;;;16.09;100.00;99277.73;104912;1253;72198;-49
2023/08/08 02:24:52;;;;;;;0.40;0.40;;;;;;;16.09;100.00;99282.30;105098;1253;66778;-52
2023/08/08 02:27:19;;;;;;;1.10;0.30;;;;;;;16.08;100.00;99281.08;105075;1259;72567;-51
2023/08/08 02:29:46;;;;;;;0.90;0.40;;;;;;;16.09;100.00;99285.05;104640;1255;60482;-51
2023/08/08 02:32:14;;;;;;;0.70;0.40;;;;;;;16.08;100.00;99285.44;104425;1256;62041;-51
2023/08/08 02:34:42;;;;;;;0.40;0.40;;;;;;;16.07;100.00;99279.73;104400;1255;72920;-50
2023/08/08 02:37:09;;;;;;;0.60;0.40;;;;;;;16.05;100.00;99279.70;104436;1253;67264;-52
2023/08/08 02:39:37;;;;;;;0.50;0.30;;;;;;;16.04;100.00;99283.92;104596;1257;71482;-51
2023/08/08 02:42:05;;;;;;;0.80;0.40;;;;;;;16.03;100.00;99289.27;104538;1257;60570;-50
2023/08/08 02:44:32;;;;;;;0.40;0.30;;;;;;;16.02;100.00;99287.16;106287;1256;60357;-52
2023/08/08 02:47:00;;;;;;;0.70;0.30;;;;;;;16.00;100.00;99285.38;104851;1253;75468;-52
2023/08/08 02:49:28;;;;;;;0.30;0.30;;;;;;;15.96;100.00;99289.16;105963;1256;66857;-52
2023/08/08 02:51:56;;;;;;;0.40;0.40;;;;;;;15.88;100.00;99284.64;104920;1259;71802;-52
2023/08/08 02:54:26;;;;;;;0.50;0.40;;;;;;;15.81;100.00;99281.78;106236;1253;61819;-51
2023/08/08 02:56:54;;;;;;;0.70;0.30;;;;;;;15.76;100.00;99279.48;104900;1256;60637;-52
2023/08/08 02:59:21;;;;;;;0.70;0.30;;;;;;;15.71;100.00;99279.50;105453;1253;77063;-51
2023/08/08 03:01:49;;;;;;;1.30;0.30;;;;;;;15.69;100.00;99282.17;104657;1256;66111;-52
2023/08/08 03:04:17;;;;;;;0.70;0.30;;;;;;;15.68;100.00;99281.85;104964;1259;72460;-52
2023/08/08 03:06:45;;;;;;;0.70;0.30;;;;;;;15.68;100.00;99280.98;105097;1256;61592;-51
2023/08/08 03:09:12;;;;;;;0.30;0.30;;;;;;;15.65;100.00;99288.42;105007;1257;60572;-52
2023/08/08 03:11:41;;;;;;;0.70;0.30;;;;;;;15.62;100.00;99290.66;105544;1258;73859;-49
2023/08/08 03:14:10;;;;;;;1.40;0.30;;;;;;;15.60;100.00;99289.19;104895;1253;67581;-49
2023/08/08 03:16:37;;;;;;;0.50;0.30;;;;;;;15.60;100.00;99297.15;105120;1258;73144;-51
2023/08/08 03:19:06;;;;;;;0.30;0.30;;;;;;;15.59;100.00;99304.42;105320;1254;60565;-52
2023/08/08 03:21:34;;;;;;;0.70;0.30;;;;;;;15.56;100.00;99305.42;104638;1253;61083;-49
2023/08/08 03:24:02;;;;;;;0.50;0.30;;;;;;;15.52;100.00;99315.07;107252;1258;73987;-51
2023/08/08 03:26:29;;;;;;;0.40;0.30;;;;;;;15.50;100.00;99316.83;104484;1255;66312;-49
2023/08/08 03:28:57;;;;;;;1.80;0.30;;;;;;;15.51;100.00;99322.53;104560;1254;72619;-52
2023/08/08 03:31:30;;;;;;;0.30;0.30;;;;;;;15.54;100.00;99322.73;104659;1259;61695;-50
2023/08/08 03:33:58;;;;;;;1.00;0.40;;;;;;;15.58;100.00;99317.16;104830;1255;59974;-49
2023/08/08 03:36:26;;;;;;;0.30;0.30;;;;;;;15.63;100.00;99328.40;108973;1254;75862;-51
2023/08/08 03:38:54;;;;;;;0.70;0.60;;;;;;;15.68;100.00;99333.41;108753;1256;65845;-52
2023/08/08 03:41:21;;;;;;;1.60;0.30;;;;;;;15.74;100.00;99337.63;108919;1253;73541;-51
2023/08/08 03:43:49;;;;;;;1.00;0.30;;;;;;;15.80;100.00;99339.16;108829;1253;60046;-51
2023/08/08 03:46:17;;;;;;;0.40;0.20;;;;;;;15.87;100.00;99337.95;108607;1256;60036;-51
2023/08/08 03:48:45;;;;;;;0.30;0.30;;;;;;;15.93;100.00;99341.67;108807;1258;73863;-52
2023/08/08 03:51:12;;;;;;;0.50;0.30;;;;;;;15.98;100.00;99350.51;108843;1256;65987;-51
2023/08/08 03:53:40;;;;;;;0.60;0.30;;;;;;;16.04;100.00;99360.16;108858;1254;72648;-52
2023/08/08 03:56:07;;;;;;;0.50;0.40;;;;;;;16.09;100.00;99364.63;108807;1254;60655;-51
2023/08/08 03:58:35;;;;;;;0.40;0.40;;;;;;;16.14;100.00;99372.02;108732;1254;58828;-52
2023/08/08 04:01:02;;;;;;;0.40;0.30;;;;;;;16.20;100.00;99382.08;108763;1253;74262;-52
2023/08/08 04:03:31;;;;;;;1.60;0.40;;;;;;;16.26;100.00;99384.49;108718;1256;65525;-52
2023/08/08 04:05:59;;;;;;;0.40;0.40;;;;;;;16.32;100.00;99388.36;108878;1254;70620;-52
2023/08/08 04:08:26;;;;;;;0.30;0.30;;;;;;;16.37;100.00;99398.48;108819;1255;60557;-52
2023/08/08 04:10:54;;;;;;;0.20;0.20;;;;;;;16.41;100.00;99397.60;109030;1254;60007;-53
2023/08/08 04:13:21;;;;;;;0.30;0.20;;;;;;;16.46;100.00;99402.53;109003;1254;74249;-52
2023/08/08 04:15:51;;;;;;;0.30;0.30;;;;;;;16.51;100.00;99411.36;106944;1258;66859;-52
2023/08/08 04:18:19;;;;;;;2.20;0.30;;;;;;;16.56;100.00;99416.73;104761;1259;71348;-51
2023/08/08 04:20:47;;;;;;;0.20;0.20;;;;;;;16.63;100.00;99423.09;104742;1259;61345;-49
2023/08/08 04:23:14;;;;;;;0.30;0.30;;;;;;;16.71;100.00;99431.35;105012;1258;60646;-51
2023/08/08 04:25:41;;;;;;;1.00;0.30;;;;;;;16.79;100.00;99436.01;104862;1259;72602;-51
2023/08/08 04:28:09;;;;;;;0.70;0.20;;;;;;;16.88;100.00;99444.86;104872;1263;65948;-51
2023/08/08 04:30:36;;;;;;;0.60;0.30;;;;;;;17.04;100.00;99452.80;104772;1260;70669;-50
2023/08/08 04:33:04;;;;;;;0.40;0.10;;;;;;;17.24;100.00;99458.63;105914;1256;60575;-51
2023/08/08 04:35:31;;;;;;;0.40;0.30;;;;;;;17.40;100.00;99465.30;105847;1254;60538;-52
2023/08/08 04:37:59;;;;;;;0.30;0.30;;;;;;;17.50;100.00;99475.63;104926;1257;73838;-51
2023/08/08 04:40:26;;;;;;;0.30;0.30;;;;;;;17.57;100.00;99482.08;104990;1259;67156;-51
2023/08/08 04:42:53;;;;;;;0.30;0.30;;;;;;;17.67;100.00;99489.99;104996;1254;72671;-53
2023/08/08 04:45:21;;;;;;;1.30;0.20;;;;;;;17.74;100.00;99493.42;104903;1256;62270;-54
2023/08/08 04:47:48;;;;;;;0.30;0.30;;;;;;;17.81;100.00;99495.73;104974;1257;60517;-52
2023/08/08 04:50:15;;;;;;;0.40;0.30;;;;;;;17.86;100.00;99497.59;105492;1259;72617;-52
2023/08/08 04:52:43;;;;;;;0.30;0.20;;;;;;;17.87;100.00;99498.52;105078;1256;66990;-53
2023/08/08 04:55:10;;;;;;;0.20;0.20;;;;;;;17.90;100.00;99495.61;104913;1257;71382;-52
2023/08/08 04:57:37;;;;;;;0.40;0.20;;;;;;;17.92;100.00;99493.92;104861;1259;61646;-50
2023/08/08 05:00:07;;;;;;;0.30;0.30;;;;;;;17.97;100.00;99498.73;104873;1254;61289;-52
2023/08/08 05:02:35;;;;;;;0.30;0.30;;;;;;;18.02;100.00;99498.53;105083;1255;73846;-51
2023/08/08 05:05:04;;;;;;;0.20;0.20;;;;;;;18.07;100.00;99499.73;105023;1253;65566;-50
2023/08/08 05:07:31;;;;;;;0.30;0.20;;;;;;;18.10;100.00;99497.31;104913;1254;71501;-52
2023/08/08 05:09:58;;;;;;;0.30;0.20;;;;;;;18.15;100.00;99502.91;104925;1255;60445;-52
2023/08/08 05:12:26;;;;;;;0.30;0.30;;;;;;;18.21;100.00;99508.10;105353;1260;60792;-51
2023/08/08 05:14:54;;;;;;;0.40;0.30;;;;;;;18.21;100.00;99512.89;105101;1259;73799;-51
2023/08/08 05:17:22;;;;;;;0.50;0.20;;;;;;;18.21;100.00;99517.83;104852;1255;67231;-53
2023/08/08 05:19:49;;;;;;;0.50;0.30;;;;;;;18.24;100.00;99528.70;105004;1256;71245;-52
2023/08/08 05:22:17;;;;;;;0.20;0.20;;;;;;;18.25;100.00;99533.85;105013;1259;61921;-51
2023/08/08 05:24:44;;;;;;;0.20;0.20;;;;;;;18.31;100.00;99532.24;104923;1259;60524;-52
2023/08/08 05:27:11;;;;;;;0.30;0.20;;;;;;;18.38;100.00;99534.52;104872;1256;73869;-52
2023/08/08 05:29:40;;;;;;;2.50;0.30;;;;;;;18.47;100.00;99536.30;104970;1259;67600;-54
2023/08/08 05:32:08;;;;;;;0.30;0.20;;;;;;;18.56;100.00;99541.05;104942;1260;72443;-53
2023/08/08 05:34:35;;;;;;;2.10;0.20;;;;;;;18.64;100.00;99544.38;104819;1258;60555;-52
2023/08/08 05:37:03;;;;;;;1.60;0.30;;;;;;;18.69;100.00;99548.68;104866;1256;60455;-54
2023/08/08 05:39:43;;;;;;;1.50;0.20;;;;;;;18.77;100.00;99551.47;105055;1259;72640;-52
2023/08/08 05:42:10;;;;;;;0.20;0.20;;;;;;;18.85;100.00;99557.48;104861;1257;65683;-54
2023/08/08 05:44:38;;;;;;;0.30;0.20;;;;;;;18.92;100.00;99551.99;105881;1256;72446;-53
2023/08/08 05:47:05;;;;;;;0.30;0.20;;;;;;;18.98;100.00;99562.57;104863;1260;63246;-52
2023/08/08 05:49:33;;;;;;;0.30;0.20;;;;;;;19.03;100.00;99569.92;104853;1260;60433;-54
2023/08/08 05:52:01;;;;;;;0.40;0.20;;;;;;;19.09;100.00;99571.24;105039;1260;73830;-52
2023/08/08 05:54:29;;;;;;;0.20;0.10;;;;;;;19.14;100.00;99576.98;104991;1259;65676;-52
2023/08/08 05:56:56;;;;;;;0.30;0.20;;;;;;;19.20;100.00;99581.05;104847;1257;71394;-51
2023/08/08 05:59:24;;;;;;;1.60;0.20;;;;;;;19.27;100.00;99585.09;104854;1255;60507;-53
2023/08/08 06:01:51;;;;;;;0.20;0.20;;;;;;;19.33;100.00;99586.38;104766;1261;60493;-52
2023/08/08 06:04:19;;;;;;;0.20;0.20;;;;;;;19.38;100.00;99594.01;105845;1258;73756;-52
2023/08/08 06:06:48;;;;;;;0.20;0.20;;;;;;;19.42;100.00;99589.83;104789;1259;66798;-53
2023/08/08 06:09:16;;;;;;;0.20;0.20;;;;;;;19.47;100.00;99595.73;104650;1254;72531;-52
2023/08/08 06:11:44;;;;;;;0.90;0.20;;;;;;;19.51;100.00;99596.48;104945;1256;60445;-52
2023/08/08 06:14:11;;;;;;;3.90;0.30;;;;;;;19.53;100.00;99598.89;104996;1259;60452;-51
2023/08/08 06:16:39;;;;;;;0.30;0.20;;;;;;;19.53;100.00;99598.16;104819;1259;73851;-51
2023/08/08 06:19:06;;;;;;;0.10;0.10;;;;;;;19.54;100.00;99601.19;104975;1257;66879;-53
2023/08/08 06:21:33;;;;;;;0.70;0.40;;;;;;;19.56;100.00;99603.89;104832;1259;71400;-51
2023/08/08 06:24:01;;;;;;;0.40;0.20;;;;;;;19.60;100.00;99607.19;104904;1254;60556;-53
2023/08/08 06:26:28;;;;;;;0.70;0.10;;;;;;;19.64;100.00;99608.43;105304;1257;60534;-52
2023/08/08 06:28:56;;;;;;;2.30;0.10;;;;;;;19.72;100.00;99616.31;104926;1267;74183;-52
2023/08/08 06:31:23;;;;;;;0.20;0.10;;;;;;;19.79;100.00;99620.08;105473;1257;65653;-50
2023/08/08 06:33:51;;;;;;;2.90;0.10;;;;;;;19.86;100.00;99622.31;104958;1258;72403;-52
2023/08/08 06:36:18;;;;;;;0.90;0.20;;;;;;;19.94;100.00;99622.53;104843;1260;61168;-52
2023/08/08 06:38:46;;;;;;;0.20;0.10;;;;;;;20.01;100.00;99627.00;104690;1253;60559;-53
2023/08/08 06:41:13;;;;;;;0.90;0.10;;;;;;;20.08;100.00;99624.03;104669;1259;74419;-53
2023/08/08 06:43:40;;;;;;;0.30;0.10;;;;;;;20.14;100.00;99626.46;104593;1258;66931;-53
2023/08/08 06:46:08;;;;;;;0.40;0.10;;;;;;;20.20;100.00;99635.14;104596;1255;72657;-52
2023/08/08 06:48:36;;;;;;;0.20;0.20;;;;;;;20.26;100.00;99645.68;104764;1254;60448;-53
2023/08/08 06:51:03;;;;;;;0.20;0.20;;;;;;;20.32;100.00;99654.09;104701;1258;60384;-55
2023/08/08 06:53:30;;;;;;;0.10;0.10;;;;;;;20.38;100.00;99662.28;104764;1258;72411;-53
2023/08/08 06:55:58;;;;;;;0.10;0.10;;;;;;;20.46;100.00;99665.80;104472;1260;66793;-53
2023/08/08 06:58:25;;;;;;;0.20;0.10;;;;;;;20.55;100.00;99671.14;104672;1259;70471;-52
2023/08/08 07:00:52;;;;;;;0.20;0.20;;;;;;;20.63;100.00;99674.83;104612;1259;60432;-53
2023/08/08 07:03:19;;;;;;;0.10;0.10;;;;;;;20.70;100.00;99681.86;104688;1254;60477;-54
2023/08/08 07:05:51;;;;;;;0.20;0.10;;;;;;;20.77;100.00;99689.73;104821;1254;72600;-53
2023/08/08 07:08:19;;;;;;;0.20;0.10;;;;;;;20.83;100.00;99696.20;109049;1255;65777;-51
2023/08/08 07:10:47;;;;;;;3.30;0.20;;;;;;;20.88;100.00;99700.98;106594;1257;71432;-52
2023/08/08 07:13:15;;;;;;;0.10;0.10;;;;;;;20.95;100.00;99698.08;109028;1254;60090;-53
2023/08/08 07:15:42;;;;;;;0.10;0.10;;;;;;;21.04;100.00;99698.94;109042;1253;62464;-54
2023/08/08 07:18:10;;;;;;;0.90;0.20;;;;;;;21.11;100.00;99706.64;108957;1254;73860;-54
2023/08/08 07:20:39;;;;;;;0.20;0.20;;;;;;;21.16;100.00;99709.33;107953;1259;66151;-51
2023/08/08 07:23:06;;;;;;;0.40;0.10;;;;;;;21.19;100.00;99710.02;106043;1258;70468;-53
2023/08/08 07:25:34;;;;;;;0.10;0.10;;;;;;;21.20;100.00;99717.02;104663;1257;60446;-52
2023/08/08 07:28:02;;;;;;;0.10;0.10;;;;;;;21.23;100.00;99718.02;104855;1260;62488;-52
2023/08/08 07:30:29;;;;;;;0.10;0.10;;;;;;;21.27;100.00;99726.75;104751;1259;73870;-51
2023/08/08 07:32:56;;;;;;;0.20;0.10;;;;;;;21.33;100.00;99726.94;104707;1260;66918;-50
2023/08/08 07:35:24;;;;;;;0.20;0.20;;;;;;;21.38;100.00;99726.63;104777;1266;72636;-51
2023/08/08 07:37:51;;;;;;;0.40;0.10;;;;;;;21.45;100.00;99722.47;104857;1254;60546;-51
2023/08/08 07:40:19;;;;;;;0.60;0.10;;;;;;;21.55;100.00;99719.55;104736;1257;60360;-51
2023/08/08 07:42:47;;;;;;;0.10;0.10;;;;;;;21.63;100.00;99718.75;104959;1257;73329;-52
2023/08/08 07:45:15;;;;;;;0.10;0.10;;;;;;;21.75;100.00;99722.56;104799;1257;64914;-54
2023/08/08 07:47:45;;;;;;;0.10;0.10;;;;;;;21.83;100.00;99725.11;105592;1254;72744;-52
2023/08/08 07:50:12;;;;;;;0.10;0.10;;;;;;;21.87;100.00;99729.97;107388;1257;61531;-52
2023/08/08 07:52:40;;;;;;;0.10;0.10;;;;;;;21.89;100.00;99735.23;104791;1259;60467;-53
2023/08/08 07:55:08;;;;;;;0.10;0.00;;;;;;;21.91;100.00;99746.09;104890;1255;73862;-53
2023/08/08 07:57:35;;;;;;;0.50;0.10;;;;;;;21.96;100.00;99759.64;104960;1254;65713;-52
2023/08/08 08:00:12;;;;;;;0.00;0.00;;;;;;;22.01;100.00;99765.80;104711;1256;72133;-52
2023/08/08 08:02:41;;;;;;;0.10;0.10;;;;;;;22.08;100.00;99774.98;106132;1258;60553;-53
2023/08/08 08:05:09;;;;;;;0.30;0.20;;;;;;;22.12;100.00;99780.63;105576;1258;60461;-53
2023/08/08 08:07:37;;;;;;;0.20;0.10;;;;;;;22.12;100.00;99780.05;105256;1260;73797;-52
2023/08/08 08:10:08;;;;;;;0.10;0.10;;;;;;;22.10;100.00;99781.56;104921;1255;66850;-53
2023/08/08 08:12:36;;;;;;;0.20;0.10;;;;;;;22.12;100.00;99777.48;104854;1254;71457;-53
2023/08/08 08:15:04;;;;;;;0.30;0.10;;;;;;;22.18;100.00;99769.60;104733;1255;61242;-52
2023/08/08 08:17:32;;;;;;;0.30;0.10;;;;;;;22.23;100.00;99764.92;105945;1255;60921;-53
2023/08/08 08:20:00;;;;;;;0.10;0.10;;;;;;;22.23;100.00;99764.21;104619;1259;73849;-53
2023/08/08 08:22:27;;;;;;;0.10;0.10;;;;;;;22.22;100.00;99765.23;104889;1257;66936;-53
2023/08/08 08:24:54;;;;;;;0.10;0.10;;;;;;;22.24;100.00;99771.55;104790;1256;72739;-52
2023/08/08 08:27:22;;;;;;;0.20;0.10;;;;;;;22.29;100.00;99775.71;104975;1254;60565;-53
2023/08/08 08:29:49;;;;;;;1.40;0.10;;;;;;;22.29;100.00;99773.11;104841;1254;60467;-51
2023/08/08 08:32:17;;;;;;;0.10;0.10;;;;;;;22.29;100.00;99765.69;104857;1259;73879;-53
2023/08/08 08:34:44;;;;;;;0.10;0.10;;;;;;;22.29;100.00;99768.15;104722;1257;68163;-52
2023/08/08 08:37:12;;;;;;;0.10;0.10;;;;;;;22.34;100.00;99774.64;104771;1258;71435;-51
2023/08/08 08:39:39;;;;;;;0.10;0.10;;;;;;;22.41;100.00;99775.25;104860;1254;61834;-50
2023/08/08 08:42:07;;;;;;;0.30;0.10;;;;;;;22.49;100.00;99781.58;104929;1254;60470;-51
2023/08/08 08:44:34;;;;;;;0.10;0.10;;;;;;;22.54;100.00;99780.13;104764;1254;75273;-52
2023/08/08 08:47:02;;;;;;;1.20;0.40;;;;;;;22.60;100.00;99776.33;104747;1260;66743;-52
2023/08/08 08:49:30;;;;;;;1.20;0.10;;;;;;;22.66;100.00;99781.03;105222;1254;71365;-52
2023/08/08 08:52:00;;;;;;;0.80;0.10;;;;;;;22.69;100.00;99780.54;104918;1261;60584;-52
2023/08/08 08:54:29;;;;;;;0.20;0.10;;;;;;;22.70;100.00;99776.27;104829;1259;60444;-53
2023/08/08 08:56:57;;;;;;;0.10;0.10;;;;;;;22.71;100.00;99775.08;104812;1254;73809;-53
2023/08/08 08:59:24;;;;;;;0.20;0.10;;;;;;;22.73;100.00;99773.88;104664;1254;65535;-54
2023/08/08 09:01:52;;;;;;;0.60;0.10;;;;;;;22.74;100.00;99777.84;104858;1257;73812;-54
2023/08/08 09:04:20;;;;;;;0.30;0.10;;;;;;;22.80;100.00;99783.90;104859;1258;60480;-54
2023/08/08 09:06:49;;;;;;;0.20;0.10;;;;;;;22.86;100.00;99778.48;104779;1254;60449;-53
2023/08/08 09:09:17;;;;;;;0.30;0.10;;;;;;;22.91;100.00;99777.98;104829;1261;73795;-53
2023/08/08 09:11:45;;;;;;;0.10;0.00;;;;;;;22.95;100.00;99780.35;105121;1254;66927;-52
2023/08/08 09:14:17;;;;;;;2.90;0.10;;;;;;;22.98;100.00;99778.00;104988;1259;73198;-54
2023/08/08 09:16:45;;;;;;;0.20;0.10;;;;;;;23.00;100.00;99784.27;104956;1254;60589;-53
2023/08/08 09:19:19;;;;;;;0.10;0.10;;;;;;;22.99;100.00;99784.70;104962;1254;60627;-52
2023/08/08 09:21:47;;;;;;;0.10;0.10;;;;;;;22.98;100.00;99786.95;104892;1259;73892;-54
2023/08/08 09:24:15;;;;;;;2.10;0.20;;;;;;;23.00;100.00;99783.89;105049;1255;64969;-53
2023/08/08 09:26:43;;;;;;;0.30;0.20;;;;;;;23.01;100.00;99776.98;104896;1258;71386;-52
2023/08/08 09:29:12;;;;;;;0.10;0.10;;;;;;;23.03;100.00;99777.36;104772;1254;60706;-53
2023/08/08 09:31:39;;;;;;;0.10;0.10;;;;;;;23.05;100.00;99783.27;104664;1260;60505;-53
2023/08/08 09:36:15;;;;;;;1.60;0.10;;;;;;;23.11;100.00;99841.72;101828;1293;600478;-53
2023/08/08 09:38:43;;;;;;;0.20;0.10;;;;;;;23.13;100.00;99857.64;108662;1259;60084;-54
2023/08/08 09:41:10;;;;;;;0.20;0.20;;;;;;;23.19;100.00;99853.77;108603;1260;59983;-54
2023/08/08 09:43:37;;;;;;;0.40;0.10;;;;;;;23.27;100.00;99848.77;108673;1260;72208;-54
2023/08/08 09:46:05;;;;;;;0.10;0.10;;;;;;;23.34;100.00;99839.98;108658;1259;65054;-54
2023/08/08 09:48:32;;;;;;;0.10;0.10;;;;;;;23.38;100.00;99842.25;108555;1261;71417;-54
2023/08/08 09:50:59;;;;;;;0.50;0.10;;;;;;;23.38;100.00;99840.07;108558;1257;217572;-55
2023/08/08 09:53:27;;;;;;;0.30;0.10;;;;;;;23.35;100.00;99840.02;108699;1263;60034;-56
2023/08/08 09:55:55;;;;;;;1.00;0.20;;;;;;;23.29;100.00;99836.84;108760;1257;72271;-55
2023/08/08 09:58:22;;;;;;;0.10;0.10;;;;;;;23.14;100.00;99828.55;108796;1257;67010;-54
2023/08/08 10:00:50;;;;;;;0.60;0.10;;;;;;;23.01;100.00;99818.18;108671;1257;72762;-54
2023/08/08 10:03:18;;;;;;;0.10;0.10;;;;;;;22.93;100.00;99814.62;108583;1260;60060;-54
2023/08/08 10:05:45;;;;;;;0.20;0.10;;;;;;;22.91;100.00;99811.44;108700;1257;60011;-54
2023/08/08 10:08:15;;;;;;;0.10;0.10;;;;;;;22.94;100.00;99807.95;108695;1257;73023;-54
2023/08/08 10:10:46;;;;;;;0.40;0.20;;;;;;;22.98;100.00;99810.05;108702;1260;66765;-54
2023/08/08 10:13:24;;;;;;;0.50;0.30;;;;;;;23.01;100.00;99808.27;108765;1257;71394;-53
2023/08/08 10:15:52;;;;;;;0.10;0.10;;;;;;;23.04;100.00;99810.41;108602;1260;60078;-55
2023/08/08 10:18:23;;;;;;;0.30;0.10;;;;;;;23.09;100.00;99813.77;108510;1257;60103;-55
2023/08/08 10:20:51;;;;;;;0.90;0.10;;;;;;;23.16;100.00;99813.17;104395;1257;73577;-54
2023/08/08 10:23:19;;;;;;;0.20;0.10;;;;;;;23.21;100.00;99816.23;107818;1262;66918;-53
2023/08/08 10:25:48;;;;;;;0.30;0.10;;;;;;;23.22;100.00;99811.52;104444;1258;74189;-54
2023/08/08 10:28:18;;;;;;;0.10;0.00;;;;;;;23.22;100.00;99808.82;105418;1263;59732;-54
2023/08/08 10:30:55;;;;;;;0.10;0.10;;;;;;;23.20;100.00;99809.17;104544;1265;59724;-53
2023/08/08 10:33:25;;;;;;;2.60;0.00;;;;;;;23.18;100.00;99809.66;104446;1265;71880;-52
2023/08/08 10:36:03;;;;;;;0.40;0.00;;;;;;;23.17;100.00;99799.96;104497;1260;66158;-52
2023/08/08 10:38:40;;;;;;;0.10;0.10;;;;;;;23.18;100.00;99801.66;104610;1260;72685;-54
2023/08/08 10:41:12;;;;;;;0.10;0.00;;;;;;;23.14;100.00;99789.02;104525;1261;59650;-53
2023/08/08 10:43:56;;;;;;;0.10;0.10;;;;;;;23.11;100.00;99786.27;105384;1257;60152;-53
2023/08/08 10:46:29;;;;;;;0.00;0.00;;;;;;;23.12;100.00;99792.60;104877;1257;73496;-52
2023/08/08 10:49:01;;;;;;;0.10;0.00;;;;;;;23.15;100.00;99793.14;104774;1257;67504;-54
2023/08/08 10:51:36;;;;;;;0.10;0.10;;;;;;;23.17;100.00;99794.95;106125;1262;72811;-53
2023/08/08 10:54:11;;;;;;;0.30;0.10;;;;;;;23.19;100.00;99792.73;104994;1263;60497;-52
2023/08/08 10:56:39;;;;;;;5.00;0.10;;;;;;;23.20;100.00;99792.70;104604;1257;60441;-53
2023/08/08 10:59:20;;;;;;;1.20;0.00;;;;;;;23.19;100.00;99787.81;104595;1257;73430;-52
2023/08/08 11:01:51;;;;;;;0.10;0.10;;;;;;;23.20;100.00;99786.42;104817;1263;65702;-53
2023/08/08 11:04:20;;;;;;;0.10;0.10;;;;;;;23.22;100.00;99784.98;104727;1263;72649;-52
2023/08/08 11:06:49;;;;;;;0.20;0.10;;;;;;;23.22;100.00;99786.05;104924;1257;61629;-55
2023/08/08 11:09:17;;;;;;;0.30;0.10;;;;;;;23.20;100.00;99782.95;104747;1260;60985;-55
2023/08/08 11:11:45;;;;;;;0.10;0.10;;;;;;;23.20;100.00;99781.11;104686;1259;71769;-52
2023/08/08 11:14:14;;;;;;;0.00;0.00;;;;;;;23.20;100.00;99775.33;104703;1257;68525;-54
2023/08/08 11:16:46;;;;;;;0.10;0.00;;;;;;;23.17;100.00;99771.00;104526;1264;73164;-54
2023/08/08 11:19:14;;;;;;;2.00;0.20;;;;;;;23.14;100.00;99773.73;104978;1254;61073;-53
2023/08/08 11:21:44;;;;;;;0.00;0.00;;;;;;;23.12;100.00;99771.30;105244;1258;59653;-53
2023/08/08 11:24:12;;;;;;;0.20;0.10;;;;;;;23.11;100.00;99770.72;104991;1257;73139;-53